Detall de PIREP

Printer-friendly versionPDF version

[2014/06/11 11:12:00]
Flight IATA:CT2215
Pilot Number:042
Company ICAO:CAT
Aircraft Type:F100/A
PAX:48
Aircraft Registration:PFJ
Departing Airport: LFRS
Destination Airport: LFMP
Alternate Airport:LEGE
Online: VATSIM
Route:LUSON A25 AGN R17 MORIL
Flight Level:F290
No Slew and time accel
No pause
Crash detect
Detect pilot in Cockpit between each 30 and 45 minutes
11:12 Zero fuel Weight: 81826 Lbs, Fuel Weight: 9499 Lbs
11:12 VATSIM:LFRS 111100Z VRB04KT CAVOK 23/10 Q1025 NOSIG
11:12 VATSIM:LFMP 111100Z VRB06KT 9999 FEW070 31/13 Q1020 NOSIG
11:13 Parking Brakes off
11:16 Take-off
11:16 Take off Weight: 90991 Lbs
11:16 Wind: 004º @ 006 Knots Heading: 026º
11:16 POS N47º 09´ 10´´ W001º 36´ 40´´
11:16 Gear Up: 165 Knots
11:16 Flaps:2 at 165 Knots
11:17 Flaps:0 at 162 Knots
11:31 Wind:033º@039 Knots Heading: 162º Ground Speed: 433 Knots Altitude 23034 ft
11:36 TOC
11:36 Fuel Weight: 6765 Lb
11:46 Wind:325º@015 Knots Heading: 138º Ground Speed: 458 Knots Altitude 29268 ft
11:58 TOD
11:58 Fuel Weight: 4834 Lb
12:01 Wind:290º@027 Knots Heading: 130º Ground Speed: 394 Knots Altitude 23625 ft
12:12 Flaps:1 at 252 Knots
12:13 Flaps:2 at 219 Knots
12:15 Gear Down: 176 Knots
12:15 Flaps:3 at 176 Knots
12:16 Wind:080º@006 Knots Heading: 333º Ground Speed: 176 Knots Altitude 2329 ft
12:18 TouchDown:Rate -297 ft/min Speed: 144 Knots
12:18 VATSIM:LFMP 111200Z 08006KT 020V150 9999 FEW070 32/12 Q1020 NOSIG
12:18 Land
12:18 Wind:078º@006 Knots
12:18 Heading: 328º
12:18 Flight Duration: 01:02
12:18 Landing Weight: 85938 Lbs
12:18 POS N42º 44´ 47´´ E002º 52´ 04´´
12:20 Parking brakes on
12:20 Block to Block Duration: 01:07
12:20 Final Fuel: 4005 Lbls
12:20 Spent Fuel: 5493 Lbls
12:20 Flight Length: 393 NM
12:20 TOD Land Length: 97 NM

Exportar CSV

Powered by Drupal - Modified by Danger4k